DLH78W EHAM-EDDH
Flight info
| Callsign | DLH78W |
|---|---|
| Flight time | 0h 36m |
| Altitude | 31000 |
| Route | ANDIK M105 RIBSO RIBSO7A |
| Aircraft | A20N/M-SDE2E3FGHIRWXY/LB1 |
Departure
| Time | 2026-05-05 17:59 |
|---|---|
| Airport | Amsterdam Airport Schiphol (EHAM) |
Arrival
| Time | 2026-05-05 18:36 |
|---|---|
| Airport | Hamburg Helmut Schmidt Airport (EDDH) |
| Time | Latitude | Longitude | Altitude | Speed | Heading |
|---|---|---|---|---|---|
| 2026-05-05 17:32 | 52.31297 | 4.75788 | -3 ft | 0 kts | 266° |
| 2026-05-05 17:47 | 52.31298 | 4.75794 | -3 ft | 2 kts | 266° |
| 2026-05-05 17:47 | 52.31299 | 4.75819 | -3 ft | 2 kts | 265° |
| 2026-05-05 17:47 | 52.31300 | 4.75843 | -3 ft | 2 kts | 265° |
| 2026-05-05 17:48 | 52.31301 | 4.75867 | -3 ft | 2 kts | 265° |
| 2026-05-05 17:48 | 52.31302 | 4.75891 | -3 ft | 2 kts | 265° |
| 2026-05-05 17:48 | 52.31303 | 4.75916 | -3 ft | 2 kts | 283° |
| 2026-05-05 17:48 | 52.31296 | 4.75937 | -3 ft | 2 kts | 340° |
| 2026-05-05 17:49 | 52.31294 | 4.75939 | -3 ft | 0 kts | 352° |
| 2026-05-05 17:52 | 52.31297 | 4.75938 | -3 ft | 2 kts | 352° |
| 2026-05-05 17:52 | 52.31319 | 4.75934 | -3 ft | 5 kts | 354° |
| 2026-05-05 17:52 | 52.31365 | 4.75928 | -3 ft | 8 kts | 357° |
| 2026-05-05 17:52 | 52.31429 | 4.75924 | -3 ft | 10 kts | 356° |
| 2026-05-05 17:53 | 52.31505 | 4.75899 | -3 ft | 12 kts | 325° |
| 2026-05-05 17:53 | 52.31523 | 4.75762 | -3 ft | 14 kts | 268° |
| 2026-05-05 17:53 | 52.31518 | 4.75578 | -3 ft | 18 kts | 267° |
| 2026-05-05 17:53 | 52.31510 | 4.75357 | -3 ft | 21 kts | 267° |
| 2026-05-05 17:54 | 52.31505 | 4.75106 | -3 ft | 23 kts | 265° |
| 2026-05-05 17:54 | 52.31496 | 4.74841 | -3 ft | 22 kts | 265° |
| 2026-05-05 17:54 | 52.31486 | 4.74572 | -3 ft | 25 kts | 264° |
| 2026-05-05 17:54 | 52.31476 | 4.74342 | -3 ft | 19 kts | 268° |
| 2026-05-05 17:55 | 52.31416 | 4.74147 | -3 ft | 21 kts | 206° |
| 2026-05-05 17:55 | 52.31260 | 4.74124 | -3 ft | 25 kts | 183° |
| 2026-05-05 17:55 | 52.31076 | 4.74104 | -3 ft | 28 kts | 184° |
| 2026-05-05 17:55 | 52.30871 | 4.74087 | -3 ft | 31 kts | 182° |
| 2026-05-05 17:56 | 52.30661 | 4.74069 | -3 ft | 29 kts | 185° |
| 2026-05-05 17:56 | 52.30435 | 4.74045 | -3 ft | 30 kts | 184° |
| 2026-05-05 17:56 | 52.30263 | 4.73972 | -3 ft | 18 kts | 232° |
| 2026-05-05 17:56 | 52.30232 | 4.73923 | -3 ft | 0 kts | 217° |
| 2026-05-05 17:57 | 52.30190 | 4.73842 | -4 ft | 12 kts | 254° |
| 2026-05-05 17:57 | 52.30190 | 4.73783 | -3 ft | 4 kts | 283° |
| 2026-05-05 17:57 | 52.30218 | 4.73751 | -4 ft | 8 kts | 337° |
| 2026-05-05 17:58 | 52.30282 | 4.73742 | -7 ft | 0 kts | 4° |
| 2026-05-05 17:58 | 52.30335 | 4.73748 | -8 ft | 38 kts | 4° |
| 2026-05-05 17:59 | 52.30888 | 4.73799 | -2 ft | 117 kts | 2° |
| 2026-05-05 17:59 | 52.31906 | 4.73875 | 150 ft | 162 kts | 2° |
| 2026-05-05 17:59 | 52.32955 | 4.73939 | 1228 ft | 148 kts | 10° |
| 2026-05-05 17:59 | 52.33955 | 4.74393 | 2059 ft | 155 kts | 21° |
| 2026-05-05 18:00 | 52.35014 | 4.75103 | 2645 ft | 173 kts | 24° |
| 2026-05-05 18:00 | 52.36197 | 4.75903 | 3141 ft | 194 kts | 23° |
| 2026-05-05 18:00 | 52.37406 | 4.77111 | 3586 ft | 218 kts | 38° |
| 2026-05-05 18:00 | 52.38652 | 4.78759 | 4113 ft | 241 kts | 39° |
| 2026-05-05 18:01 | 52.39980 | 4.80569 | 4931 ft | 252 kts | 39° |
| 2026-05-05 18:01 | 52.41338 | 4.82427 | 5744 ft | 262 kts | 39° |
| 2026-05-05 18:01 | 52.42773 | 4.84383 | 6552 ft | 272 kts | 39° |
| 2026-05-05 18:01 | 52.44241 | 4.86382 | 7474 ft | 275 kts | 39° |
| 2026-05-05 18:02 | 52.45729 | 4.88404 | 8366 ft | 281 kts | 39° |
| 2026-05-05 18:02 | 52.47250 | 4.90471 | 9278 ft | 286 kts | 39° |
| 2026-05-05 18:02 | 52.48777 | 4.92546 | 10116 ft | 292 kts | 39° |
| 2026-05-05 18:02 | 52.50402 | 4.94757 | 10549 ft | 314 kts | 39° |
| 2026-05-05 18:03 | 52.52148 | 4.97134 | 10855 ft | 336 kts | 39° |
| 2026-05-05 18:03 | 52.53953 | 4.99596 | 11512 ft | 345 kts | 39° |
| 2026-05-05 18:03 | 52.55810 | 5.02133 | 12342 ft | 349 kts | 39° |
| 2026-05-05 18:03 | 52.57692 | 5.04707 | 13152 ft | 354 kts | 39° |
| 2026-05-05 18:04 | 52.59602 | 5.07324 | 13913 ft | 359 kts | 39° |
| 2026-05-05 18:04 | 52.61536 | 5.09971 | 14605 ft | 364 kts | 39° |
| 2026-05-05 18:04 | 52.63496 | 5.12658 | 15306 ft | 368 kts | 39° |
| 2026-05-05 18:04 | 52.65474 | 5.15373 | 15990 ft | 373 kts | 39° |
| 2026-05-05 18:05 | 52.67458 | 5.18099 | 16648 ft | 378 kts | 39° |
| 2026-05-05 18:05 | 52.69489 | 5.20895 | 17317 ft | 383 kts | 39° |
| 2026-05-05 18:05 | 52.71546 | 5.23742 | 17969 ft | 388 kts | 41° |
| 2026-05-05 18:05 | 52.73380 | 5.27025 | 18552 ft | 392 kts | 54° |
| 2026-05-05 18:06 | 52.74762 | 5.30932 | 19156 ft | 395 kts | 67° |
| 2026-05-05 18:06 | 52.75112 | 5.32352 | 19356 ft | 395 kts | 71° |
| 2026-05-05 18:06 | 52.76329 | 5.38058 | 20124 ft | 401 kts | 71° |
| 2026-05-05 18:06 | 52.77269 | 5.42426 | 20733 ft | 404 kts | 71° |
| 2026-05-05 18:07 | 52.78525 | 5.48247 | 21490 ft | 409 kts | 71° |
| 2026-05-05 18:07 | 52.79484 | 5.52708 | 22074 ft | 412 kts | 71° |
| 2026-05-05 18:07 | 52.80121 | 5.55675 | 22462 ft | 414 kts | 72° |
| 2026-05-05 18:07 | 52.81086 | 5.60187 | 23036 ft | 418 kts | 72° |
| 2026-05-05 18:08 | 52.82059 | 5.64744 | 23582 ft | 421 kts | 72° |
| 2026-05-05 18:08 | 52.83040 | 5.69343 | 24065 ft | 424 kts | 72° |
| 2026-05-05 18:08 | 52.84023 | 5.73970 | 24535 ft | 427 kts | 72° |
| 2026-05-05 18:08 | 52.85011 | 5.78633 | 24980 ft | 431 kts | 72° |
| 2026-05-05 18:09 | 52.86007 | 5.83337 | 25432 ft | 434 kts | 72° |
| 2026-05-05 18:09 | 52.86992 | 5.88005 | 25862 ft | 437 kts | 72° |
| 2026-05-05 18:09 | 52.87996 | 5.92775 | 26262 ft | 441 kts | 72° |
| 2026-05-05 18:09 | 52.89008 | 5.97595 | 26655 ft | 444 kts | 72° |
| 2026-05-05 18:10 | 52.90025 | 6.02446 | 27043 ft | 448 kts | 73° |
| 2026-05-05 18:10 | 52.90919 | 6.07394 | 27432 ft | 449 kts | 78° |
| 2026-05-05 18:10 | 52.91674 | 6.12441 | 27796 ft | 448 kts | 78° |
| 2026-05-05 18:10 | 52.92428 | 6.17399 | 27658 ft | 441 kts | 78° |
| 2026-05-05 18:11 | 52.93165 | 6.22311 | 27318 ft | 438 kts | 78° |
| 2026-05-05 18:11 | 52.93893 | 6.27228 | 27069 ft | 439 kts | 78° |
| 2026-05-05 18:11 | 52.94607 | 6.32122 | 27083 ft | 446 kts | 78° |
| 2026-05-05 18:11 | 52.95335 | 6.37152 | 27375 ft | 451 kts | 79° |
| 2026-05-05 18:12 | 52.96068 | 6.42236 | 27764 ft | 454 kts | 79° |
| 2026-05-05 18:12 | 52.96803 | 6.47354 | 28134 ft | 457 kts | 79° |
| 2026-05-05 18:12 | 52.97532 | 6.52453 | 28481 ft | 460 kts | 79° |
| 2026-05-05 18:12 | 52.98272 | 6.57646 | 28820 ft | 463 kts | 79° |
| 2026-05-05 18:13 | 52.99019 | 6.62903 | 29154 ft | 466 kts | 79° |
| 2026-05-05 18:13 | 52.99762 | 6.68155 | 29462 ft | 469 kts | 79° |
| 2026-05-05 18:13 | 53.00511 | 6.73461 | 29787 ft | 473 kts | 79° |
| 2026-05-05 18:13 | 53.01255 | 6.78753 | 30078 ft | 476 kts | 79° |
| 2026-05-05 18:14 | 53.02006 | 6.84116 | 30384 ft | 478 kts | 79° |
| 2026-05-05 18:14 | 53.02760 | 6.89515 | 30673 ft | 480 kts | 79° |
| 2026-05-05 18:14 | 53.03517 | 6.94958 | 30879 ft | 483 kts | 80° |
| 2026-05-05 18:15 | 53.05021 | 7.05832 | 30906 ft | 482 kts | 80° |
| 2026-05-05 18:15 | 53.06507 | 7.16650 | 30897 ft | 483 kts | 80° |
| 2026-05-05 18:15 | 53.07255 | 7.22132 | 30751 ft | 484 kts | 80° |
| 2026-05-05 18:16 | 53.07985 | 7.27501 | 30353 ft | 483 kts | 80° |
| 2026-05-05 18:16 | 53.08724 | 7.32956 | 29733 ft | 481 kts | 79° |
| 2026-05-05 18:16 | 53.09456 | 7.38371 | 29048 ft | 476 kts | 79° |
| 2026-05-05 18:16 | 53.10178 | 7.43735 | 28379 ft | 472 kts | 79° |
| 2026-05-05 18:17 | 53.10884 | 7.49002 | 27737 ft | 468 kts | 79° |
| 2026-05-05 18:17 | 53.11586 | 7.54258 | 27104 ft | 463 kts | 79° |
| 2026-05-05 18:17 | 53.12282 | 7.59491 | 26488 ft | 459 kts | 79° |
| 2026-05-05 18:17 | 53.12966 | 7.64659 | 25871 ft | 455 kts | 79° |
| 2026-05-05 18:18 | 53.13643 | 7.69786 | 25272 ft | 451 kts | 79° |
| 2026-05-05 18:18 | 53.14305 | 7.74821 | 24698 ft | 447 kts | 79° |
| 2026-05-05 18:18 | 53.14965 | 7.79857 | 24124 ft | 443 kts | 79° |
| 2026-05-05 18:18 | 53.15618 | 7.84859 | 23567 ft | 439 kts | 79° |
| 2026-05-05 18:19 | 53.16262 | 7.89807 | 22923 ft | 435 kts | 79° |
| 2026-05-05 18:19 | 53.16901 | 7.94737 | 22279 ft | 431 kts | 79° |
| 2026-05-05 18:19 | 53.17525 | 7.99563 | 21641 ft | 427 kts | 79° |
| 2026-05-05 18:19 | 53.18148 | 8.04396 | 21016 ft | 423 kts | 79° |
| 2026-05-05 18:20 | 53.18762 | 8.09181 | 20409 ft | 419 kts | 79° |
| 2026-05-05 18:20 | 53.19370 | 8.13932 | 19808 ft | 416 kts | 79° |
| 2026-05-05 18:20 | 53.19961 | 8.18567 | 19230 ft | 412 kts | 79° |
| 2026-05-05 18:20 | 53.20555 | 8.23238 | 18656 ft | 409 kts | 79° |
| 2026-05-05 18:21 | 53.21142 | 8.27874 | 18081 ft | 405 kts | 79° |
| 2026-05-05 18:21 | 53.21723 | 8.32474 | 17432 ft | 402 kts | 79° |
| 2026-05-05 18:21 | 53.22289 | 8.36965 | 16807 ft | 398 kts | 79° |
| 2026-05-05 18:21 | 53.22856 | 8.41488 | 16191 ft | 395 kts | 78° |
| 2026-05-05 18:22 | 53.23415 | 8.45950 | 15584 ft | 392 kts | 78° |
| 2026-05-05 18:22 | 53.23968 | 8.50391 | 14995 ft | 388 kts | 78° |
| 2026-05-05 18:22 | 53.24512 | 8.54765 | 14416 ft | 386 kts | 78° |
| 2026-05-05 18:22 | 53.25054 | 8.59139 | 13845 ft | 383 kts | 78° |
| 2026-05-05 18:23 | 53.25592 | 8.63494 | 13222 ft | 380 kts | 78° |
| 2026-05-05 18:23 | 53.26116 | 8.67752 | 12594 ft | 377 kts | 78° |
| 2026-05-05 18:23 | 53.26644 | 8.72051 | 11980 ft | 375 kts | 78° |
| 2026-05-05 18:23 | 53.27166 | 8.76317 | 11368 ft | 373 kts | 79° |
| 2026-05-05 18:24 | 53.27676 | 8.80492 | 11001 ft | 364 kts | 79° |
| 2026-05-05 18:24 | 53.28170 | 8.84556 | 10893 ft | 348 kts | 79° |
| 2026-05-05 18:24 | 53.28650 | 8.88512 | 10883 ft | 349 kts | 78° |
| 2026-05-05 18:24 | 53.29379 | 8.92387 | 10879 ft | 350 kts | 69° |
| 2026-05-05 18:25 | 53.30309 | 8.96103 | 10881 ft | 349 kts | 66° |
| 2026-05-05 18:25 | 53.30960 | 8.98593 | 10880 ft | 349 kts | 66° |
| 2026-05-05 18:25 | 53.32249 | 9.03569 | 10883 ft | 350 kts | 67° |
| 2026-05-05 18:25 | 53.33194 | 9.07318 | 10884 ft | 350 kts | 67° |
| 2026-05-05 18:26 | 53.34125 | 9.11079 | 10884 ft | 350 kts | 68° |
| 2026-05-05 18:26 | 53.35048 | 9.14851 | 10882 ft | 350 kts | 68° |
| 2026-05-05 18:26 | 53.35968 | 9.18628 | 10881 ft | 350 kts | 68° |
| 2026-05-05 18:26 | 53.36874 | 9.22356 | 10651 ft | 348 kts | 68° |
| 2026-05-05 18:27 | 53.37786 | 9.26115 | 10179 ft | 347 kts | 68° |
| 2026-05-05 18:27 | 53.38690 | 9.29846 | 9689 ft | 343 kts | 68° |
| 2026-05-05 18:27 | 53.39577 | 9.33514 | 9164 ft | 334 kts | 68° |
| 2026-05-05 18:27 | 53.40421 | 9.37087 | 8637 ft | 324 kts | 69° |
| 2026-05-05 18:28 | 53.42033 | 9.43924 | 7624 ft | 308 kts | 68° |
| 2026-05-05 18:28 | 53.42843 | 9.47219 | 7123 ft | 301 kts | 68° |
| 2026-05-05 18:28 | 53.43620 | 9.50398 | 6630 ft | 294 kts | 68° |
| 2026-05-05 18:29 | 53.44084 | 9.53701 | 6151 ft | 287 kts | 82° |
| 2026-05-05 18:29 | 53.44738 | 9.56763 | 5813 ft | 273 kts | 60° |
| 2026-05-05 18:29 | 53.45694 | 9.59458 | 5471 ft | 263 kts | 58° |
| 2026-05-05 18:29 | 53.46368 | 9.62182 | 5142 ft | 252 kts | 81° |
| 2026-05-05 18:30 | 53.46840 | 9.64916 | 4842 ft | 239 kts | 58° |
| 2026-05-05 18:30 | 53.47762 | 9.67123 | 4548 ft | 220 kts | 52° |
| 2026-05-05 18:30 | 53.48648 | 9.69056 | 4251 ft | 198 kts | 52° |
| 2026-05-05 18:30 | 53.49457 | 9.70806 | 3975 ft | 182 kts | 52° |
| 2026-05-05 18:31 | 53.50218 | 9.72443 | 3751 ft | 177 kts | 51° |
| 2026-05-05 18:31 | 53.50959 | 9.74027 | 3525 ft | 169 kts | 51° |
| 2026-05-05 18:31 | 53.51695 | 9.75591 | 3311 ft | 171 kts | 51° |
| 2026-05-05 18:31 | 53.52431 | 9.77142 | 3086 ft | 168 kts | 51° |
| 2026-05-05 18:32 | 53.53156 | 9.78663 | 2857 ft | 166 kts | 51° |
| 2026-05-05 18:32 | 53.53864 | 9.80141 | 2621 ft | 163 kts | 51° |
| 2026-05-05 18:32 | 53.54583 | 9.81634 | 2414 ft | 163 kts | 50° |
| 2026-05-05 18:32 | 53.55302 | 9.83112 | 2184 ft | 162 kts | 51° |
| 2026-05-05 18:33 | 53.56002 | 9.84567 | 1956 ft | 162 kts | 52° |
| 2026-05-05 18:33 | 53.56711 | 9.86047 | 1744 ft | 162 kts | 51° |
| 2026-05-05 18:33 | 53.57435 | 9.87507 | 1520 ft | 166 kts | 51° |
| 2026-05-05 18:33 | 53.58191 | 9.89037 | 1317 ft | 168 kts | 50° |
| 2026-05-05 18:34 | 53.58912 | 9.90492 | 1033 ft | 155 kts | 51° |
| 2026-05-05 18:34 | 53.59579 | 9.91839 | 817 ft | 143 kts | 50° |
| 2026-05-05 18:34 | 53.60202 | 9.93099 | 633 ft | 134 kts | 51° |
| 2026-05-05 18:34 | 53.60772 | 9.94250 | 443 ft | 124 kts | 50° |
| 2026-05-05 18:35 | 53.61318 | 9.95355 | 294 ft | 126 kts | 51° |
| 2026-05-05 18:35 | 53.61887 | 9.96510 | 125 ft | 127 kts | 49° |
| 2026-05-05 18:35 | 53.62436 | 9.97604 | 44 ft | 109 kts | 51° |
| 2026-05-05 18:35 | 53.62853 | 9.98444 | 48 ft | 83 kts | 50° |
| 2026-05-05 18:36 | 53.63173 | 9.99094 | 49 ft | 45 kts | 50° |
| 2026-05-05 18:36 | 53.63297 | 9.99357 | 49 ft | 12 kts | 76° |
| 2026-05-05 18:36 | 53.63293 | 9.99508 | 47 ft | 15 kts | 103° |
| 2026-05-05 18:36 | 53.63277 | 9.99657 | 48 ft | 0 kts | 99° |
| 2026-05-05 18:37 | 53.63275 | 9.99678 | 48 ft | 5 kts | 99° |
| 2026-05-05 18:38 | 53.63276 | 9.99755 | 49 ft | 8 kts | 73° |
| 2026-05-05 18:38 | 53.63314 | 9.99831 | 49 ft | 10 kts | 49° |
| 2026-05-05 18:38 | 53.63362 | 9.99924 | 50 ft | 11 kts | 49° |
| 2026-05-05 18:38 | 53.63417 | 10.00034 | 50 ft | 13 kts | 54° |
| 2026-05-05 18:39 | 53.63448 | 10.00137 | 51 ft | 10 kts | 84° |
| 2026-05-05 18:39 | 53.63449 | 10.00274 | 51 ft | 13 kts | 87° |
| 2026-05-05 18:39 | 53.63451 | 10.00326 | 51 ft | 0 kts | 85° |